createdAt,value
2017-11-07T00:00:27.713Z,1021.39
2017-11-07T00:01:27.755Z,1021.42
2017-11-07T00:02:27.774Z,1021.41
2017-11-07T00:03:28.092Z,1021.40
2017-11-07T00:04:27.822Z,1021.36
2017-11-07T00:05:27.869Z,1021.37
2017-11-07T00:06:27.899Z,1021.34
2017-11-07T00:07:27.920Z,1021.37
2017-11-07T00:08:27.949Z,1021.34
2017-11-07T00:09:27.982Z,1021.37
2017-11-07T00:10:28.266Z,1021.40
2017-11-07T00:11:28.040Z,1021.40
2017-11-07T00:12:28.092Z,1021.38
2017-11-07T00:13:28.101Z,1021.33
2017-11-07T00:14:28.146Z,1021.37
2017-11-07T00:15:28.162Z,1021.37
2017-11-07T00:16:28.196Z,1021.39
2017-11-07T00:17:28.476Z,1021.38
2017-11-07T00:18:28.272Z,1021.42
2017-11-07T00:19:28.489Z,1021.40
2017-11-07T00:20:28.339Z,1021.32
2017-11-07T00:21:28.367Z,1021.35
2017-11-07T00:22:28.394Z,1021.35
2017-11-07T00:23:28.415Z,1021.31
2017-11-07T00:24:28.709Z,1021.33
2017-11-07T00:25:28.492Z,1021.32
2017-11-07T00:26:28.545Z,1021.31
2017-11-07T00:27:28.539Z,1021.32
2017-11-07T00:28:28.568Z,1021.29
2017-11-07T00:29:28.714Z,1021.28
2017-11-07T00:30:28.653Z,1021.29
2017-11-07T00:31:28.976Z,1021.26
2017-11-07T00:32:28.727Z,1021.30
2017-11-07T00:33:28.741Z,1021.30
2017-11-07T00:34:28.775Z,1021.28
2017-11-07T00:35:28.784Z,1021.27
2017-11-07T00:36:28.815Z,1021.28
2017-11-07T00:37:28.848Z,1021.27
2017-11-07T00:38:29.127Z,1021.27
2017-11-07T00:39:28.912Z,1021.26
2017-11-07T00:40:28.965Z,1021.26
2017-11-07T00:41:28.988Z,1021.28
2017-11-07T00:42:29.005Z,1021.27
2017-11-07T00:43:29.050Z,1021.25
2017-11-07T00:44:29.070Z,1021.21
2017-11-07T00:45:29.618Z,1021.22
2017-11-07T00:46:29.124Z,1021.20
2017-11-07T00:47:29.156Z,1021.20
2017-11-07T00:48:29.210Z,1021.18
2017-11-07T00:49:29.217Z,1021.20
2017-11-07T00:50:29.270Z,1021.17
2017-11-07T00:51:29.347Z,1021.13
2017-11-07T00:52:29.631Z,1021.13
2017-11-07T00:53:29.362Z,1021.12
2017-11-07T00:54:29.396Z,1021.11
2017-11-07T00:55:29.422Z,1021.10
2017-11-07T00:56:29.452Z,1021.06
2017-11-07T00:57:29.467Z,1021.05
2017-11-07T00:58:29.764Z,1021.03
2017-11-07T00:59:29.600Z,1021.04
2017-11-07T01:00:29.559Z,1021.02
2017-11-07T01:01:29.591Z,1021.04
2017-11-07T01:02:29.642Z,1021.01
2017-11-07T01:03:29.661Z,1021.04
2017-11-07T01:04:30.002Z,1021.02
2017-11-07T01:05:29.723Z,1021.03
2017-11-07T01:06:29.760Z,1021.04
2017-11-07T01:07:29.801Z,1021.03
2017-11-07T01:08:29.928Z,1021.01
2017-11-07T01:09:29.848Z,1021.02
2017-11-07T01:10:30.121Z,1021.01
2017-11-07T01:11:29.922Z,1020.99
2017-11-07T01:12:29.979Z,1020.99
2017-11-07T01:13:30.049Z,1021.03
2017-11-07T01:14:30.021Z,1021.01
2017-11-07T01:15:30.048Z,1021.03
2017-11-07T01:16:30.325Z,1021.03
2017-11-07T01:17:30.174Z,1021.02
2017-11-07T01:18:30.141Z,1021.01
2017-11-07T01:19:30.250Z,1020.98
2017-11-07T01:20:30.199Z,1020.99
2017-11-07T01:21:30.232Z,1021.01
2017-11-07T01:22:30.495Z,1021.03
2017-11-07T01:23:30.289Z,1021.02
2017-11-07T01:24:30.326Z,1021.03
2017-11-07T01:25:30.336Z,1021.04
2017-11-07T01:26:30.390Z,1021.01
2017-11-07T01:27:30.417Z,1020.99
2017-11-07T01:28:30.735Z,1020.98
2017-11-07T01:29:30.460Z,1021.00
2017-11-07T01:30:30.593Z,1020.94
2017-11-07T01:31:30.522Z,1020.93
2017-11-07T01:32:30.578Z,1020.93
2017-11-07T01:33:30.583Z,1020.93
2017-11-07T01:34:30.863Z,1020.87
2017-11-07T01:35:30.663Z,1020.89
2017-11-07T01:36:30.677Z,1020.86
2017-11-07T01:37:30.727Z,1020.85
2017-11-07T01:38:30.739Z,1020.87
2017-11-07T01:39:30.770Z,1020.85
2017-11-07T01:40:31.051Z,1020.85
2017-11-07T01:41:30.891Z,1020.84
2017-11-07T01:42:30.888Z,1020.86
2017-11-07T01:43:30.892Z,1020.82
2017-11-07T01:44:30.925Z,1020.83
2017-11-07T01:45:30.976Z,1020.88
2017-11-07T01:46:31.263Z,1020.82
2017-11-07T01:47:31.028Z,1020.86
2017-11-07T01:48:31.115Z,1020.87
2017-11-07T01:49:31.098Z,1020.90
2017-11-07T01:50:31.128Z,1020.94
2017-11-07T01:51:31.166Z,1020.91
2017-11-07T01:52:31.423Z,1020.94
2017-11-07T01:53:31.433Z,1020.92
2017-11-07T01:54:31.236Z,1020.92
2017-11-07T01:55:31.263Z,1020.89
2017-11-07T01:56:31.318Z,1020.87
2017-11-07T01:57:31.325Z,1020.85
2017-11-07T01:58:31.624Z,1020.85
2017-11-07T01:59:31.457Z,1020.84
2017-11-07T02:00:31.437Z,1020.83
2017-11-07T02:01:31.456Z,1020.81
2017-11-07T02:02:31.496Z,1020.77
2017-11-07T02:03:31.515Z,1020.83
2017-11-07T02:04:31.828Z,1020.81
2017-11-07T02:05:31.671Z,1020.85
2017-11-07T02:06:31.604Z,1020.83
2017-11-07T02:07:31.688Z,1020.82
2017-11-07T02:08:31.690Z,1020.84
2017-11-07T02:09:31.700Z,1020.83
2017-11-07T02:10:31.991Z,1020.86
2017-11-07T02:11:31.774Z,1020.85
2017-11-07T02:12:31.789Z,1020.88
2017-11-07T02:13:31.845Z,1020.82
2017-11-07T02:14:31.869Z,1020.85
2017-11-07T02:15:31.901Z,1020.81
2017-11-07T02:16:31.912Z,1020.82
2017-11-07T02:17:32.394Z,1020.80
2017-11-07T02:18:31.996Z,1020.78
2017-11-07T02:19:32.021Z,1020.78
2017-11-07T02:20:32.046Z,1020.73
2017-11-07T02:21:32.087Z,1020.72
2017-11-07T02:22:32.098Z,1020.70
2017-11-07T02:23:32.130Z,1020.69
2017-11-07T02:24:32.427Z,1020.73
2017-11-07T02:25:32.217Z,1020.72
2017-11-07T02:26:32.246Z,1020.71
2017-11-07T02:27:32.275Z,1020.66
2017-11-07T02:28:32.287Z,1020.69
2017-11-07T02:29:32.381Z,1020.67
2017-11-07T02:30:32.344Z,1020.61
2017-11-07T02:31:32.646Z,1020.62
2017-11-07T02:32:32.426Z,1020.65
2017-11-07T02:33:32.482Z,1020.65
2017-11-07T02:34:32.472Z,1020.63
2017-11-07T02:35:32.567Z,1020.61
2017-11-07T02:36:32.534Z,1020.59
2017-11-07T02:37:32.576Z,1020.58
2017-11-07T02:38:32.840Z,1020.59
2017-11-07T02:39:32.648Z,1020.58
2017-11-07T02:40:32.705Z,1020.58
2017-11-07T02:41:32.698Z,1020.58
2017-11-07T02:42:32.736Z,1020.56
2017-11-07T02:43:32.761Z,1020.56
2017-11-07T02:44:32.788Z,1020.53
2017-11-07T02:45:33.075Z,1020.47
2017-11-07T02:46:32.841Z,1020.48
2017-11-07T02:47:32.938Z,1020.49
2017-11-07T02:48:32.965Z,1020.53
2017-11-07T02:49:32.958Z,1020.53
2017-11-07T02:50:32.967Z,1020.51
2017-11-07T02:51:32.991Z,1020.52
2017-11-07T02:52:33.347Z,1020.48
2017-11-07T02:53:33.107Z,1020.47
2017-11-07T02:54:33.080Z,1020.46
2017-11-07T02:55:33.151Z,1020.52
2017-11-07T02:56:33.148Z,1020.49
2017-11-07T02:57:33.191Z,1020.49
2017-11-07T02:58:33.206Z,1020.52
2017-11-07T02:59:33.487Z,1020.47
2017-11-07T03:00:33.272Z,1020.51
2017-11-07T03:01:33.308Z,1020.53
2017-11-07T03:02:33.347Z,1020.48
2017-11-07T03:03:33.389Z,1020.52
2017-11-07T03:04:33.406Z,1020.51
2017-11-07T03:05:33.447Z,1020.51
2017-11-07T03:06:33.719Z,1020.53
2017-11-07T03:07:33.506Z,1020.52
2017-11-07T03:08:33.577Z,1020.52
2017-11-07T03:09:33.547Z,1020.51
2017-11-07T03:10:33.573Z,1020.51
2017-11-07T03:11:33.626Z,1020.48
2017-11-07T03:12:33.635Z,1020.51
2017-11-07T03:13:33.922Z,1020.52
2017-11-07T03:14:33.701Z,1020.50
2017-11-07T03:15:33.736Z,1020.51
2017-11-07T03:16:33.776Z,1020.49
2017-11-07T03:17:33.796Z,1020.50
2017-11-07T03:18:33.826Z,1020.43
2017-11-07T03:19:34.064Z,1020.45
2017-11-07T03:20:34.152Z,1020.46
2017-11-07T03:21:33.915Z,1020.50
2017-11-07T03:22:33.941Z,1020.46
2017-11-07T03:23:33.992Z,1020.43
2017-11-07T03:24:34.004Z,1020.42
2017-11-07T03:25:34.035Z,1020.43
2017-11-07T03:26:34.081Z,1020.37
2017-11-07T03:27:34.363Z,1020.38
2017-11-07T03:28:34.123Z,1020.39
2017-11-07T03:29:34.173Z,1020.35
2017-11-07T03:30:34.205Z,1020.35
2017-11-07T03:31:34.216Z,1020.34
2017-11-07T03:32:34.253Z,1020.29
2017-11-07T03:33:34.582Z,1020.28
2017-11-07T03:34:34.339Z,1020.25
2017-11-07T03:35:34.350Z,1020.26
2017-11-07T03:36:34.371Z,1020.28
2017-11-07T03:37:34.418Z,1020.28
2017-11-07T03:38:34.452Z,1020.26
2017-11-07T03:39:34.717Z,1020.26
2017-11-07T03:40:34.509Z,1020.26
2017-11-07T03:41:34.545Z,1020.19
2017-11-07T03:42:34.553Z,1020.22
2017-11-07T03:43:34.603Z,1020.21
2017-11-07T03:44:34.620Z,1020.21
2017-11-07T03:45:34.920Z,1020.24
2017-11-07T03:46:34.783Z,1020.21
2017-11-07T03:47:34.723Z,1020.24
2017-11-07T03:48:34.744Z,1020.24
2017-11-07T03:49:34.799Z,1020.19
2017-11-07T03:50:34.798Z,1020.23
2017-11-07T03:51:35.159Z,1020.24
2017-11-07T03:52:34.879Z,1020.23
2017-11-07T03:53:34.918Z,1020.19
2017-11-07T03:54:34.929Z,1020.21
2017-11-07T03:55:34.985Z,1020.20
2017-11-07T03:56:34.987Z,1020.24
2017-11-07T03:57:35.281Z,1020.17
2017-11-07T03:58:35.194Z,1020.16
2017-11-07T03:59:35.082Z,1020.18
2017-11-07T04:00:35.111Z,1020.18
2017-11-07T04:01:35.157Z,1020.16
2017-11-07T04:02:35.184Z,1020.16
2017-11-07T04:03:35.465Z,1020.14
2017-11-07T04:04:35.449Z,1020.18
2017-11-07T04:05:35.286Z,1020.18
2017-11-07T04:06:35.319Z,1020.17
2017-11-07T04:07:35.348Z,1020.21
2017-11-07T04:08:35.372Z,1020.22
2017-11-07T04:09:35.651Z,1020.25
2017-11-07T04:10:35.437Z,1020.25
2017-11-07T04:11:35.516Z,1020.22
2017-11-07T04:12:35.496Z,1020.24
2017-11-07T04:13:35.520Z,1020.22
2017-11-07T04:14:35.533Z,1020.21
2017-11-07T04:15:35.985Z,1020.21
2017-11-07T04:16:35.596Z,1020.19
2017-11-07T04:17:35.626Z,1020.23
2017-11-07T04:18:35.673Z,1020.17
2017-11-07T04:19:35.704Z,1020.20
2017-11-07T04:20:35.800Z,1020.20
2017-11-07T04:21:36.220Z,1020.17
2017-11-07T04:22:35.799Z,1020.22
2017-11-07T04:23:35.821Z,1020.22
2017-11-07T04:24:35.871Z,1020.24
2017-11-07T04:25:35.896Z,1020.21
2017-11-07T04:26:35.901Z,1020.24
2017-11-07T04:27:36.211Z,1020.21
2017-11-07T04:28:35.982Z,1020.28
2017-11-07T04:29:36.004Z,1020.27
2017-11-07T04:30:36.042Z,1020.23
2017-11-07T04:31:36.074Z,1020.21
2017-11-07T04:32:39.789Z,1020.24
2017-11-07T04:33:36.418Z,1020.26
2017-11-07T04:34:36.146Z,1020.28
2017-11-07T04:35:36.188Z,1020.28
2017-11-07T04:36:36.224Z,1020.33
2017-11-07T04:37:36.253Z,1020.28
2017-11-07T04:38:36.320Z,1020.30
2017-11-07T04:39:36.626Z,1020.33
2017-11-07T04:40:36.347Z,1020.33
2017-11-07T04:41:36.363Z,1020.31
2017-11-07T04:42:36.428Z,1020.31
2017-11-07T04:43:36.427Z,1020.32
2017-11-07T04:44:36.511Z,1020.31
2017-11-07T04:45:36.788Z,1020.34
2017-11-07T04:46:36.512Z,1020.36
2017-11-07T04:47:36.563Z,1020.32
2017-11-07T04:48:36.592Z,1020.31
2017-11-07T04:49:36.608Z,1020.32
2017-11-07T04:50:36.651Z,1020.29
2017-11-07T04:51:36.673Z,1020.30
2017-11-07T04:52:36.969Z,1020.28
2017-11-07T04:53:36.734Z,1020.31
2017-11-07T04:54:36.775Z,1020.27
2017-11-07T04:55:36.796Z,1020.29
2017-11-07T04:56:36.822Z,1020.29
2017-11-07T04:57:36.873Z,1020.27
2017-11-07T04:58:36.898Z,1020.25
2017-11-07T04:59:36.910Z,1020.26
2017-11-07T05:00:36.943Z,1020.25
2017-11-07T05:01:36.993Z,1020.25
2017-11-07T05:02:37.006Z,1020.26
2017-11-07T05:03:37.036Z,1020.24
2017-11-07T05:04:37.088Z,1020.27
2017-11-07T05:05:37.346Z,1020.32
2017-11-07T05:06:37.143Z,1020.29
2017-11-07T05:07:37.187Z,1020.27
2017-11-07T05:08:37.208Z,1020.30
2017-11-07T05:09:37.439Z,1020.28
2017-11-07T05:10:37.268Z,1020.28
2017-11-07T05:11:37.293Z,1020.27
2017-11-07T05:12:37.592Z,1020.22
2017-11-07T05:13:37.379Z,1020.19
2017-11-07T05:14:37.371Z,1020.23
2017-11-07T05:15:37.405Z,1020.27
2017-11-07T05:16:37.452Z,1020.25
2017-11-07T05:17:37.496Z,1020.24
2017-11-07T05:18:37.593Z,1020.27
2017-11-07T05:19:37.838Z,1020.27
2017-11-07T05:20:37.605Z,1020.28
2017-11-07T05:21:37.653Z,1020.26
2017-11-07T05:22:37.633Z,1020.29
2017-11-07T05:23:37.676Z,1020.25
2017-11-07T05:24:37.677Z,1020.29
2017-11-07T05:25:37.726Z,1020.27
2017-11-07T05:26:38.008Z,1020.26
2017-11-07T05:27:37.771Z,1020.24
2017-11-07T05:28:37.822Z,1020.25
2017-11-07T05:29:37.849Z,1020.22
2017-11-07T05:30:37.963Z,1020.24
2017-11-07T05:31:37.918Z,1020.20
2017-11-07T05:32:37.924Z,1020.23
2017-11-07T05:33:38.236Z,1020.23
2017-11-07T05:34:38.056Z,1020.22
2017-11-07T05:35:38.037Z,1020.19
2017-11-07T05:36:38.050Z,1020.23
2017-11-07T05:37:38.218Z,1020.22
2017-11-07T05:38:38.113Z,1020.25
2017-11-07T05:39:38.163Z,1020.22
2017-11-07T05:40:38.478Z,1020.22
2017-11-07T05:41:38.234Z,1020.24
2017-11-07T05:42:38.257Z,1020.23
2017-11-07T05:43:38.278Z,1020.22
2017-11-07T05:44:38.293Z,1020.21
2017-11-07T05:45:38.351Z,1020.23
2017-11-07T05:46:38.379Z,1020.22
2017-11-07T05:47:38.649Z,1020.22
2017-11-07T05:48:38.463Z,1020.21
2017-11-07T05:49:38.538Z,1020.23
2017-11-07T05:50:38.493Z,1020.24
2017-11-07T05:51:38.523Z,1020.23
2017-11-07T05:52:38.553Z,1020.21
2017-11-07T05:53:38.569Z,1020.27
2017-11-07T05:54:38.931Z,1020.30
2017-11-07T05:55:38.632Z,1020.25
2017-11-07T05:56:38.697Z,1020.26
2017-11-07T05:57:38.711Z,1020.27
2017-11-07T05:58:38.741Z,1020.24
2017-11-07T05:59:38.755Z,1020.24
2017-11-07T06:00:38.807Z,1020.22
2017-11-07T06:01:39.133Z,1020.18
2017-11-07T06:02:38.863Z,1020.19
2017-11-07T06:03:38.893Z,1020.15
2017-11-07T06:04:38.920Z,1020.15
2017-11-07T06:05:38.961Z,1020.12
2017-11-07T06:06:38.984Z,1020.17
2017-11-07T06:07:39.311Z,1020.14
2017-11-07T06:08:39.088Z,1020.16
2017-11-07T06:09:39.077Z,1020.15
2017-11-07T06:10:39.104Z,1020.16
2017-11-07T06:11:39.127Z,1020.18
2017-11-07T06:12:39.151Z,1020.18
2017-11-07T06:13:39.457Z,1020.19
2017-11-07T06:14:39.213Z,1020.20
2017-11-07T06:15:39.245Z,1020.17
2017-11-07T06:16:39.290Z,1020.20
2017-11-07T06:17:39.377Z,1020.22
2017-11-07T06:18:39.355Z,1020.21
2017-11-07T06:19:39.665Z,1020.18
2017-11-07T06:20:39.404Z,1020.16
2017-11-07T06:21:39.425Z,1020.15
2017-11-07T06:22:39.474Z,1020.11
2017-11-07T06:23:39.504Z,1020.12
2017-11-07T06:24:39.535Z,1020.08
2017-11-07T06:25:39.867Z,1020.08
2017-11-07T06:26:39.590Z,1020.08
2017-11-07T06:27:39.613Z,1020.05
2017-11-07T06:28:39.644Z,1020.04
2017-11-07T06:29:39.841Z,1020.03
2017-11-07T06:30:39.709Z,1020.01
2017-11-07T06:31:40.056Z,1020.01
2017-11-07T06:32:39.773Z,1019.98
2017-11-07T06:33:39.801Z,1019.93
2017-11-07T06:34:39.843Z,1019.98
2017-11-07T06:35:39.881Z,1019.97
2017-11-07T06:36:39.892Z,1020.00
2017-11-07T06:37:40.221Z,1019.98
2017-11-07T06:38:39.949Z,1020.01
2017-11-07T06:39:40.049Z,1020.00
2017-11-07T06:40:40.032Z,1020.03
2017-11-07T06:41:40.046Z,1020.01
2017-11-07T06:42:40.088Z,1020.02
2017-11-07T06:43:40.377Z,1020.02
2017-11-07T06:44:40.141Z,1019.98
2017-11-07T06:45:40.187Z,1019.95
2017-11-07T06:46:40.196Z,1019.92
2017-11-07T06:47:40.225Z,1019.94
2017-11-07T06:48:40.271Z,1019.95
2017-11-07T06:49:40.596Z,1019.91
2017-11-07T06:50:40.315Z,1019.91
2017-11-07T06:51:40.366Z,1019.90
2017-11-07T06:52:40.446Z,1019.90
2017-11-07T06:53:40.426Z,1019.91
2017-11-07T06:54:40.457Z,1019.90
2017-11-07T06:55:40.730Z,1019.90
2017-11-07T06:56:40.523Z,1019.87
2017-11-07T06:57:40.534Z,1019.88
2017-11-07T06:58:40.592Z,1019.86
2017-11-07T06:59:40.595Z,1019.88
2017-11-07T07:00:40.776Z,1019.93
2017-11-07T07:01:40.955Z,1019.91
2017-11-07T07:02:40.806Z,1019.93
2017-11-07T07:03:40.716Z,1019.93
2017-11-07T07:04:40.773Z,1019.94
2017-11-07T07:05:40.829Z,1019.95
2017-11-07T07:06:40.825Z,1019.95
2017-11-07T07:07:41.113Z,1019.94
2017-11-07T07:08:40.892Z,1019.91
2017-11-07T07:09:40.911Z,1019.90
2017-11-07T07:10:41.026Z,1019.85
2017-11-07T07:11:40.982Z,1019.88
2017-11-07T07:12:40.993Z,1019.86
2017-11-07T07:13:41.292Z,1019.83
2017-11-07T07:14:41.059Z,1019.87
2017-11-07T07:15:41.091Z,1019.81
2017-11-07T07:16:41.116Z,1019.81
2017-11-07T07:17:41.152Z,1019.83
2017-11-07T07:18:41.179Z,1019.83
2017-11-07T07:19:41.510Z,1019.79
2017-11-07T07:20:41.239Z,1019.79
2017-11-07T07:21:41.277Z,1019.78
2017-11-07T07:22:41.320Z,1019.76
2017-11-07T07:23:41.359Z,1019.77
2017-11-07T07:24:41.590Z,1019.75
2017-11-07T07:25:41.426Z,1019.81
2017-11-07T07:26:41.742Z,1019.79
2017-11-07T07:27:41.455Z,1019.77
2017-11-07T07:28:41.494Z,1019.79
2017-11-07T07:29:41.523Z,1019.76
2017-11-07T07:30:42.790Z,1019.78
2017-11-07T07:31:41.587Z,1019.82
2017-11-07T07:32:41.636Z,1019.81
2017-11-07T07:33:41.942Z,1019.80
2017-11-07T07:34:41.687Z,1019.77
2017-11-07T07:35:41.723Z,1019.80
2017-11-07T07:36:41.891Z,1019.78
2017-11-07T07:37:41.989Z,1019.76
2017-11-07T07:38:41.821Z,1019.79
2017-11-07T07:39:41.830Z,1019.81
2017-11-07T07:40:42.213Z,1019.78
2017-11-07T07:41:41.891Z,1019.81
2017-11-07T07:42:41.954Z,1019.77
2017-11-07T07:43:41.981Z,1019.78
2017-11-07T07:44:41.999Z,1019.76
2017-11-07T07:45:42.017Z,1019.75
2017-11-07T07:46:42.063Z,1019.74
2017-11-07T07:47:42.378Z,1019.73
2017-11-07T07:48:42.119Z,1019.71
2017-11-07T07:49:42.155Z,1019.74
2017-11-07T07:50:42.163Z,1019.69
2017-11-07T07:51:42.220Z,1019.72
2017-11-07T07:52:42.226Z,1019.67
2017-11-07T07:53:42.361Z,1019.72
2017-11-07T07:54:42.550Z,1019.71
2017-11-07T07:55:42.346Z,1019.69
2017-11-07T07:56:42.355Z,1019.72
2017-11-07T07:57:42.397Z,1019.69
2017-11-07T07:58:42.428Z,1019.70
2017-11-07T07:59:42.448Z,1019.65
2017-11-07T08:00:42.477Z,1019.61
2017-11-07T08:01:42.771Z,1019.58
2017-11-07T08:02:42.552Z,1019.57
2017-11-07T08:03:42.617Z,1019.60
2017-11-07T08:04:42.600Z,1019.58
2017-11-07T08:05:42.651Z,1019.57
2017-11-07T08:06:42.663Z,1019.54
2017-11-07T08:07:42.706Z,1019.55
2017-11-07T08:08:42.991Z,1019.55
2017-11-07T08:09:42.808Z,1019.56
2017-11-07T08:10:42.786Z,1019.55
2017-11-07T08:11:42.813Z,1019.56
2017-11-07T08:12:42.864Z,1019.57
2017-11-07T08:13:42.928Z,1019.53
2017-11-07T08:14:42.929Z,1019.52
2017-11-07T08:15:43.273Z,1019.52
2017-11-07T08:16:42.971Z,1019.56
2017-11-07T08:17:43.033Z,1019.58
2017-11-07T08:18:43.031Z,1019.53
2017-11-07T08:19:43.067Z,1019.54
2017-11-07T08:20:43.157Z,1019.52
2017-11-07T08:21:43.158Z,1019.54
2017-11-07T08:22:43.473Z,1019.56
2017-11-07T08:23:43.205Z,1019.54
2017-11-07T08:24:43.245Z,1019.58
2017-11-07T08:25:43.265Z,1019.56
2017-11-07T08:26:43.299Z,1019.55
2017-11-07T08:27:43.329Z,1019.54
2017-11-07T08:28:43.416Z,1019.55
2017-11-07T08:29:43.660Z,1019.55
2017-11-07T08:30:43.455Z,1019.56
2017-11-07T08:31:43.455Z,1019.55
2017-11-07T08:32:43.463Z,1019.61
2017-11-07T08:33:43.508Z,1019.60
2017-11-07T08:34:43.526Z,1019.59
2017-11-07T08:35:43.576Z,1019.59
2017-11-07T08:36:43.867Z,1019.58
2017-11-07T08:37:43.625Z,1019.52
2017-11-07T08:38:43.667Z,1019.51
2017-11-07T08:39:43.684Z,1019.49
2017-11-07T08:40:43.717Z,1019.49
2017-11-07T08:41:43.779Z,1019.47
2017-11-07T08:42:44.041Z,1019.46
2017-11-07T08:43:43.826Z,1019.46
2017-11-07T08:44:43.846Z,1019.44
2017-11-07T08:45:43.892Z,1019.45
2017-11-07T08:46:43.973Z,1019.46
2017-11-07T08:47:43.951Z,1019.46
2017-11-07T08:48:44.242Z,1019.47
2017-11-07T08:49:43.993Z,1019.49
2017-11-07T08:50:44.041Z,1019.46
2017-11-07T08:51:44.072Z,1019.43
2017-11-07T08:52:44.092Z,1019.45
2017-11-07T08:53:44.147Z,1019.42
2017-11-07T08:54:44.427Z,1019.44
2017-11-07T08:55:44.197Z,1019.41
2017-11-07T08:56:44.243Z,1019.41
2017-11-07T08:57:44.261Z,1019.42
2017-11-07T08:58:44.302Z,1019.42
2017-11-07T08:59:44.320Z,1019.40
2017-11-07T09:00:44.736Z,1019.35
2017-11-07T09:01:44.383Z,1019.36
2017-11-07T09:02:44.397Z,1019.34
2017-11-07T09:03:44.445Z,1019.38
2017-11-07T09:04:44.459Z,1019.31
2017-11-07T09:05:44.509Z,1019.31
2017-11-07T09:06:44.785Z,1019.28
2017-11-07T09:07:44.558Z,1019.27
2017-11-07T09:08:44.601Z,1019.22
2017-11-07T09:09:44.640Z,1019.22
2017-11-07T09:10:44.664Z,1019.17
2017-11-07T09:11:44.702Z,1019.19
2017-11-07T09:12:44.982Z,1019.21
2017-11-07T09:13:44.744Z,1019.18
2017-11-07T09:14:44.993Z,1019.17
2017-11-07T09:15:44.831Z,1019.19
2017-11-07T09:16:44.853Z,1019.17
2017-11-07T09:17:44.871Z,1019.20
2017-11-07T09:18:45.232Z,1019.18
2017-11-07T09:19:44.956Z,1019.21
2017-11-07T09:20:45.029Z,1019.22
2017-11-07T09:21:44.999Z,1019.24
2017-11-07T09:22:45.040Z,1019.25
2017-11-07T09:23:45.076Z,1019.23
2017-11-07T09:24:45.353Z,1019.26
2017-11-07T09:25:45.143Z,1019.20
2017-11-07T09:26:45.151Z,1019.24
2017-11-07T09:27:45.184Z,1019.27
2017-11-07T09:28:45.381Z,1019.26
2017-11-07T09:29:45.259Z,1019.30
2017-11-07T09:30:45.599Z,1019.30
2017-11-07T09:31:45.308Z,1019.27
2017-11-07T09:32:45.343Z,1019.28
2017-11-07T09:33:45.371Z,1019.27
2017-11-07T09:34:45.407Z,1019.27
2017-11-07T09:35:45.447Z,1019.27
2017-11-07T09:36:45.468Z,1019.28
2017-11-07T09:37:45.491Z,1019.26
2017-11-07T09:38:45.526Z,1019.17
2017-11-07T09:39:45.598Z,1019.20
2017-11-07T09:40:45.609Z,1019.15
2017-11-07T09:41:45.628Z,1019.17
2017-11-07T09:42:45.929Z,1019.18
2017-11-07T09:43:45.699Z,1019.19
2017-11-07T09:44:45.729Z,1019.19
2017-11-07T09:45:45.760Z,1019.20
2017-11-07T09:46:45.812Z,1019.19
2017-11-07T09:47:45.808Z,1019.15
2017-11-07T09:48:46.131Z,1019.14
2017-11-07T09:49:45.870Z,1019.14
2017-11-07T09:50:45.980Z,1019.11
2017-11-07T09:51:45.944Z,1019.07
2017-11-07T09:52:45.992Z,1019.05
2017-11-07T09:53:45.996Z,1019.05
2017-11-07T09:54:46.028Z,1019.04
2017-11-07T09:55:46.324Z,1019.06
2017-11-07T09:56:46.159Z,1019.04
2017-11-07T09:57:46.123Z,1019.02
2017-11-07T09:58:46.154Z,1019.05
2017-11-07T09:59:46.185Z,1019.02
2017-11-07T10:00:46.237Z,1018.96
2017-11-07T10:01:46.259Z,1018.92
2017-11-07T10:02:46.713Z,1018.91
2017-11-07T10:03:46.312Z,1018.92
2017-11-07T10:04:46.341Z,1018.88
2017-11-07T10:05:46.377Z,1018.88
2017-11-07T10:06:46.405Z,1018.89
2017-11-07T10:07:46.442Z,1018.88
2017-11-07T10:08:46.495Z,1018.87
2017-11-07T10:09:46.771Z,1018.87
2017-11-07T10:10:46.597Z,1018.86
2017-11-07T10:11:46.580Z,1018.84
2017-11-07T10:12:46.594Z,1018.84
2017-11-07T10:13:46.628Z,1018.81
2017-11-07T10:14:46.678Z,1018.83
2017-11-07T10:15:46.699Z,1018.78
2017-11-07T10:16:47.024Z,1018.77
2017-11-07T10:17:46.758Z,1018.78
2017-11-07T10:18:46.783Z,1018.78
2017-11-07T10:19:46.835Z,1018.78
2017-11-07T10:20:46.968Z,1018.71
2017-11-07T10:21:46.899Z,1018.69
2017-11-07T10:22:46.930Z,1018.64
2017-11-07T10:23:47.216Z,1018.63
2017-11-07T10:24:46.980Z,1018.57
2017-11-07T10:25:47.022Z,1018.60
2017-11-07T10:26:47.041Z,1018.54
2017-11-07T10:27:47.100Z,1018.54
2017-11-07T10:28:47.106Z,1018.50
2017-11-07T10:29:47.148Z,1018.51
2017-11-07T10:30:47.430Z,1018.49
2017-11-07T10:31:47.197Z,1018.43
2017-11-07T10:32:47.344Z,1018.38
2017-11-07T10:33:47.279Z,1018.38
2017-11-07T10:34:47.306Z,1018.37
2017-11-07T10:35:47.339Z,1018.33
2017-11-07T10:36:47.352Z,1018.32
2017-11-07T10:37:47.656Z,1018.25
2017-11-07T10:38:47.415Z,1018.22
2017-11-07T10:39:47.455Z,1018.23
2017-11-07T10:40:47.503Z,1018.22
2017-11-07T10:41:47.538Z,1018.17
2017-11-07T10:42:47.571Z,1018.16
2017-11-07T10:43:47.599Z,1018.16
2017-11-07T10:44:47.886Z,1018.13
2017-11-07T10:45:47.661Z,1018.10
2017-11-07T10:46:47.671Z,1018.10
2017-11-07T10:47:47.718Z,1018.09
2017-11-07T10:48:47.733Z,1018.08
2017-11-07T10:49:47.762Z,1018.09
2017-11-07T10:50:47.847Z,1018.10
2017-11-07T10:51:48.127Z,1018.12
2017-11-07T10:52:47.876Z,1018.10
2017-11-07T10:53:47.908Z,1018.04
2017-11-07T10:54:47.946Z,1018.01
2017-11-07T10:55:48.023Z,1018.01
2017-11-07T10:56:48.004Z,1017.99
2017-11-07T10:57:48.018Z,1017.99
2017-11-07T10:58:48.366Z,1018.00
2017-11-07T10:59:48.096Z,1017.96
2017-11-07T11:00:48.129Z,1018.00
2017-11-07T11:01:48.146Z,1017.94
2017-11-07T11:02:48.191Z,1017.93
2017-11-07T11:03:48.207Z,1017.97
2017-11-07T11:04:48.246Z,1017.96
2017-11-07T11:05:48.687Z,1017.88
2017-11-07T11:06:48.309Z,1017.89
2017-11-07T11:07:48.354Z,1017.85
2017-11-07T11:08:48.376Z,1017.86
2017-11-07T11:09:48.415Z,1017.87
2017-11-07T11:10:48.461Z,1017.84
2017-11-07T11:11:48.466Z,1017.82
2017-11-07T11:12:48.812Z,1017.79
2017-11-07T11:13:48.542Z,1017.85
2017-11-07T11:14:48.573Z,1017.80
2017-11-07T11:15:48.608Z,1017.82
2017-11-07T11:16:48.645Z,1017.76
2017-11-07T11:17:48.670Z,1017.76
2017-11-07T11:18:49.154Z,1017.74
2017-11-07T11:19:48.716Z,1017.76
2017-11-07T11:20:48.748Z,1017.73
2017-11-07T11:21:48.786Z,1017.74
2017-11-07T11:22:48.830Z,1017.70
2017-11-07T11:23:48.860Z,1017.70
2017-11-07T11:24:49.194Z,1017.70
2017-11-07T11:25:48.927Z,1017.72
2017-11-07T11:26:48.940Z,1017.69
2017-11-07T11:27:48.986Z,1017.65
2017-11-07T11:28:49.299Z,1017.63
2017-11-07T11:29:49.034Z,1017.63
2017-11-07T11:30:49.336Z,1017.64
2017-11-07T11:31:49.116Z,1017.63
2017-11-07T11:32:49.143Z,1017.62
2017-11-07T11:33:49.181Z,1017.65
2017-11-07T11:34:49.290Z,1017.63
2017-11-07T11:35:49.223Z,1017.62
2017-11-07T11:36:49.574Z,1017.61
2017-11-07T11:37:49.287Z,1017.62
2017-11-07T11:38:49.342Z,1017.57
2017-11-07T11:39:49.370Z,1017.59
2017-11-07T11:40:49.421Z,1017.55
2017-11-07T11:41:49.434Z,1017.54
2017-11-07T11:42:49.757Z,1017.52
2017-11-07T11:43:49.482Z,1017.52
2017-11-07T11:44:49.534Z,1017.47
2017-11-07T11:45:49.558Z,1017.46
2017-11-07T11:46:49.602Z,1017.48
2017-11-07T11:47:49.625Z,1017.46
2017-11-07T11:48:49.955Z,1017.43
2017-11-07T11:49:49.673Z,1017.41
2017-11-07T11:50:49.738Z,1017.41
2017-11-07T11:51:49.732Z,1017.42
2017-11-07T11:52:49.767Z,1017.38
2017-11-07T11:53:49.927Z,1017.38
2017-11-07T11:54:50.150Z,1017.31
2017-11-07T11:55:49.877Z,1017.31
2017-11-07T11:56:49.911Z,1017.32
2017-11-07T11:57:49.952Z,1017.29
2017-11-07T11:58:49.953Z,1017.30
2017-11-07T11:59:49.997Z,1017.30
2017-11-07T12:00:50.268Z,1017.24
2017-11-07T12:01:50.068Z,1017.22
2017-11-07T12:02:50.098Z,1017.20
2017-11-07T12:03:50.115Z,1017.16
2017-11-07T12:04:50.146Z,1017.12
2017-11-07T12:05:50.196Z,1017.06